createdAt,value
2022-08-30T00:01:26.495Z,18.60
2022-08-30T00:04:29.800Z,20.60
2022-08-30T00:07:33.080Z,18.50
2022-08-30T00:10:36.492Z,18.50
2022-08-30T00:13:40.819Z,18.50
2022-08-30T00:16:45.445Z,18.20
2022-08-30T00:19:48.665Z,18.50
2022-08-30T00:22:52.017Z,18.50
2022-08-30T00:25:55.400Z,18.40
2022-08-30T00:28:58.875Z,18.40
2022-08-30T00:32:03.954Z,18.40
2022-08-30T00:35:11.946Z,18.30
2022-08-30T00:38:16.669Z,20.10
2022-08-30T00:41:19.807Z,18.20
2022-08-30T00:44:24.114Z,18.10
2022-08-30T00:47:28.724Z,18.00
2022-08-30T00:50:39.027Z,17.90
2022-08-30T00:53:47.573Z,17.90
2022-08-30T00:56:51.535Z,16.60
2022-08-30T00:59:54.800Z,17.70
2022-08-30T01:02:59.751Z,17.70
2022-08-30T01:06:05.936Z,17.50
2022-08-30T01:09:10.366Z,17.50
2022-08-30T01:12:14.160Z,17.40
2022-08-30T01:15:20.638Z,17.40
2022-08-30T01:18:26.700Z,19.80
2022-08-30T01:21:40.556Z,17.20
2022-08-30T01:24:47.633Z,17.20
2022-08-30T01:27:57.783Z,17.60
2022-08-30T01:31:01.759Z,17.00
2022-08-30T01:34:07.557Z,16.90
2022-08-30T01:37:10.736Z,18.40
2022-08-30T01:40:19.683Z,16.90
2022-08-30T01:43:23.249Z,14.50
2022-08-30T01:46:31.066Z,16.70
2022-08-30T01:49:34.262Z,20.10
2022-08-30T01:52:37.384Z,16.60
2022-08-30T01:55:42.585Z,18.30
2022-08-30T01:58:46.656Z,16.60
2022-08-30T02:01:50.008Z,16.60
2022-08-30T02:04:54.231Z,16.50
2022-08-30T02:07:57.221Z,16.50
2022-08-30T02:11:01.767Z,16.50
2022-08-30T02:14:06.052Z,16.40
2022-08-30T02:17:13.048Z,16.10
2022-08-30T02:20:16.338Z,16.70
2022-08-30T02:23:20.067Z,16.20
2022-08-30T02:26:24.926Z,16.10
2022-08-30T02:29:29.354Z,16.10
2022-08-30T02:32:32.514Z,16.40
2022-08-30T02:35:35.708Z,15.90
2022-08-30T02:38:38.913Z,15.80
2022-08-30T02:41:44.448Z,16.40
2022-08-30T02:44:47.649Z,15.80
2022-08-30T02:47:50.932Z,15.60
2022-08-30T02:50:54.673Z,15.70
2022-08-30T02:53:58.112Z,15.70
2022-08-30T02:57:04.968Z,15.70
2022-08-30T03:00:12.662Z,15.60
2022-08-30T03:03:16.869Z,15.60
2022-08-30T03:06:20.247Z,15.60
2022-08-30T03:09:23.729Z,15.50
2022-08-30T03:12:28.391Z,15.40
2022-08-30T03:15:31.753Z,17.30
2022-08-30T03:18:35.056Z,15.40
2022-08-30T03:21:39.145Z,15.90
2022-08-30T03:24:42.688Z,15.40
2022-08-30T03:27:47.551Z,13.20
2022-08-30T03:30:50.707Z,15.30
2022-08-30T03:33:54.112Z,15.20
2022-08-30T03:36:58.367Z,15.10
2022-08-30T03:40:02.710Z,15.10
2022-08-30T03:43:07.351Z,15.10
2022-08-30T03:46:13.462Z,15.90
2022-08-30T03:49:17.287Z,15.10
2022-08-30T03:52:20.419Z,15.10
2022-08-30T03:55:23.764Z,15.00
2022-08-30T04:01:32.341Z,15.00
2022-08-30T04:04:35.710Z,15.00
2022-08-30T04:07:39.166Z,15.00
2022-08-30T04:10:42.443Z,15.00
2022-08-30T04:13:49.363Z,15.00
2022-08-30T04:16:53.130Z,15.00
2022-08-30T04:19:56.656Z,15.10
2022-08-30T04:22:59.829Z,15.10
2022-08-30T04:26:02.975Z,15.10
2022-08-30T04:29:07.640Z,15.10
2022-08-30T04:32:10.751Z,15.20
2022-08-30T04:35:15.277Z,15.10
2022-08-30T04:38:18.901Z,15.20
2022-08-30T04:41:25.941Z,15.10
2022-08-30T04:44:32.067Z,15.20
2022-08-30T04:47:35.341Z,15.20
2022-08-30T04:50:38.721Z,15.20
2022-08-30T04:56:45.638Z,15.20
2022-08-30T04:59:50.478Z,15.20
2022-08-30T05:02:54.196Z,15.20
2022-08-30T05:05:57.339Z,15.10
2022-08-30T05:09:01.745Z,15.20
2022-08-30T05:12:05.471Z,17.10
2022-08-30T05:15:12.153Z,15.30
2022-08-30T05:18:16.096Z,15.70
2022-08-30T05:21:22.291Z,16.00
2022-08-30T05:24:25.791Z,17.50
2022-08-30T05:27:29.224Z,17.00
2022-08-30T05:30:38.220Z,17.60
2022-08-30T05:33:41.728Z,18.10
2022-08-30T05:36:45.096Z,18.60
2022-08-30T05:39:51.533Z,19.00
2022-08-30T05:42:55.494Z,19.50
2022-08-30T05:46:05.332Z,20.00
2022-08-30T05:49:09.675Z,20.40
2022-08-30T05:52:15.402Z,20.80
2022-08-30T05:55:19.597Z,21.20
2022-08-30T05:58:22.895Z,21.50
2022-08-30T06:01:31.729Z,21.90
2022-08-30T06:04:36.587Z,22.00
2022-08-30T06:07:39.762Z,22.20
2022-08-30T06:10:43.345Z,22.50
2022-08-30T06:13:47.578Z,22.70
2022-08-30T06:16:52.763Z,23.00
2022-08-30T06:19:56.000Z,23.10
2022-08-30T06:22:59.403Z,23.30
2022-08-30T06:26:06.489Z,23.40
2022-08-30T06:29:11.323Z,23.50
2022-08-30T06:32:15.894Z,23.60
2022-08-30T06:35:19.176Z,23.70
2022-08-30T06:38:22.346Z,23.70
2022-08-30T06:41:29.159Z,23.70
2022-08-30T06:44:32.299Z,23.60
2022-08-30T06:47:36.971Z,23.60
2022-08-30T06:50:41.921Z,23.50
2022-08-30T06:53:46.015Z,23.60
2022-08-30T06:56:58.237Z,23.70
2022-08-30T07:00:09.523Z,22.80
2022-08-30T07:03:15.875Z,24.10
2022-08-30T07:06:19.969Z,24.10
2022-08-30T07:09:23.296Z,25.30
2022-08-30T07:12:26.751Z,24.50
2022-08-30T07:15:30.014Z,24.60
2022-08-30T07:18:55.108Z,24.70
2022-08-30T07:21:58.281Z,24.70
2022-08-30T07:25:01.859Z,27.00
2022-08-30T07:28:05.825Z,24.40
2022-08-30T07:31:09.268Z,24.20
2022-08-30T07:34:14.012Z,23.90
2022-08-30T07:37:18.183Z,23.60
2022-08-30T07:40:21.845Z,23.20
2022-08-30T07:43:25.097Z,22.90
2022-08-30T07:46:29.169Z,22.60
2022-08-30T07:49:33.932Z,22.30
2022-08-30T07:55:41.690Z,22.00
2022-08-30T07:58:44.898Z,21.90
2022-08-30T08:01:48.057Z,21.80
2022-08-30T08:04:52.763Z,21.70
2022-08-30T08:07:55.915Z,21.60
2022-08-30T08:11:00.043Z,21.60
2022-08-30T08:14:04.685Z,21.60
2022-08-30T08:17:07.951Z,21.60
2022-08-30T08:20:12.892Z,23.90
2022-08-30T08:23:18.069Z,21.60
2022-08-30T08:26:22.651Z,21.60
2022-08-30T08:29:26.904Z,21.60
2022-08-30T08:32:30.220Z,21.60
2022-08-30T08:35:35.548Z,21.50
2022-08-30T08:38:38.782Z,21.50
2022-08-30T08:41:55.035Z,21.40
2022-08-30T08:45:10.268Z,21.50
2022-08-30T08:48:35.910Z,21.50
2022-08-30T08:52:14.620Z,21.60
2022-08-30T08:55:23.463Z,21.70
2022-08-30T08:58:30.777Z,21.70
2022-08-30T09:01:34.330Z,23.10
2022-08-30T09:04:40.782Z,21.80
2022-08-30T09:07:51.019Z,21.80
2022-08-30T09:11:00.155Z,21.80
2022-08-30T09:14:04.735Z,21.90
2022-08-30T09:17:10.117Z,22.00
2022-08-30T09:20:13.710Z,22.00
2022-08-30T09:23:28.701Z,22.10
2022-08-30T09:26:35.520Z,22.20
2022-08-30T09:29:53.719Z,22.20
2022-08-30T09:33:00.887Z,22.60
2022-08-30T09:36:22.532Z,22.30
2022-08-30T09:39:33.829Z,21.50
2022-08-30T09:42:37.571Z,22.40
2022-08-30T09:45:44.077Z,22.40
2022-08-30T09:48:48.020Z,22.50
2022-08-30T09:52:10.778Z,22.50
2022-08-30T09:55:32.977Z,22.50
2022-08-30T09:59:01.635Z,22.50
2022-08-30T10:02:35.438Z,21.00
2022-08-30T10:05:54.035Z,22.60
2022-08-30T10:09:15.290Z,22.60
2022-08-30T10:12:33.429Z,22.70
2022-08-30T10:15:46.936Z,22.70
2022-08-30T10:19:07.168Z,22.80
2022-08-30T10:22:17.907Z,22.80
2022-08-30T10:25:27.173Z,22.80
2022-08-30T10:28:41.564Z,22.80
2022-08-30T10:31:53.393Z,24.30
2022-08-30T10:35:04.397Z,22.90
2022-08-30T10:38:16.403Z,22.90
2022-08-30T10:41:30.499Z,22.90
2022-08-30T10:44:44.317Z,23.00
2022-08-30T10:47:59.861Z,23.00
2022-08-30T10:51:13.276Z,25.60
2022-08-30T10:54:24.570Z,22.20
2022-08-30T10:57:28.275Z,23.10
2022-08-30T11:00:46.535Z,23.20
2022-08-30T11:04:40.496Z,23.50
2022-08-30T11:08:05.147Z,21.90
2022-08-30T11:11:21.450Z,23.40
2022-08-30T11:14:26.295Z,23.40
2022-08-30T11:17:39.800Z,23.50
2022-08-30T11:20:49.404Z,23.50
2022-08-30T11:24:11.478Z,23.50
2022-08-30T11:27:42.792Z,23.50
2022-08-30T11:30:52.316Z,23.50
2022-08-30T11:34:00.910Z,24.50
2022-08-30T11:37:09.526Z,21.90
2022-08-30T11:40:53.519Z,23.50
2022-08-30T11:43:57.378Z,23.50
2022-08-30T11:47:01.764Z,23.50
2022-08-30T11:50:16.083Z,23.60
2022-08-30T11:53:30.502Z,23.60
2022-08-30T11:56:49.314Z,23.00
2022-08-30T12:00:06.992Z,24.80
2022-08-30T12:03:33.566Z,23.60
2022-08-30T12:06:54.131Z,23.60
2022-08-30T12:10:06.920Z,23.60
2022-08-30T12:13:55.481Z,23.60
2022-08-30T12:17:19.028Z,23.70
2022-08-30T12:20:30.981Z,23.70
2022-08-30T12:23:49.553Z,23.70
2022-08-30T12:26:54.466Z,23.70
2022-08-30T12:30:02.873Z,23.70
2022-08-30T12:33:12.031Z,23.80
2022-08-30T12:36:33.420Z,23.80
2022-08-30T12:39:40.631Z,23.80
2022-08-30T12:42:53.900Z,23.90
2022-08-30T12:46:07.202Z,22.20
2022-08-30T12:49:14.431Z,23.80
2022-08-30T12:52:22.903Z,23.90
2022-08-30T12:55:31.677Z,23.90
2022-08-30T12:58:45.725Z,23.90
2022-08-30T13:01:50.417Z,24.00
2022-08-30T13:04:59.880Z,24.10
2022-08-30T13:08:21.417Z,24.20
2022-08-30T13:11:29.721Z,24.20
2022-08-30T13:14:39.116Z,25.40
2022-08-30T13:17:47.944Z,24.30
2022-08-30T13:20:51.434Z,24.30
2022-08-30T13:24:00.280Z,24.30
2022-08-30T13:27:09.658Z,24.00
2022-08-30T13:30:16.919Z,24.30
2022-08-30T13:33:21.623Z,24.20
2022-08-30T13:36:29.918Z,24.20
2022-08-30T13:39:33.215Z,24.10
2022-08-30T13:42:37.044Z,24.00
2022-08-30T13:45:41.948Z,24.00
2022-08-30T13:48:47.615Z,23.90
2022-08-30T13:52:18.529Z,23.90
2022-08-30T13:55:17.241Z,25.00
2022-08-30T13:58:20.909Z,23.90
2022-08-30T14:01:24.302Z,23.40
2022-08-30T14:04:30.229Z,23.90
2022-08-30T14:07:33.442Z,23.80
2022-08-30T14:10:46.720Z,23.80
2022-08-30T14:17:14.927Z,23.60
2022-08-30T14:20:20.610Z,21.80
2022-08-30T14:23:23.841Z,23.50
2022-08-30T14:26:33.075Z,23.40
2022-08-30T14:29:36.911Z,23.40
2022-08-30T14:32:42.681Z,23.10
2022-08-30T14:35:47.502Z,23.40
2022-08-30T14:38:53.118Z,23.50
2022-08-30T14:41:57.934Z,24.90
2022-08-30T14:45:08.995Z,23.40
2022-08-30T14:48:12.893Z,23.40
2022-08-30T14:51:23.742Z,23.40
2022-08-30T14:54:34.966Z,23.40
2022-08-30T14:57:40.787Z,25.10
2022-08-30T15:00:50.783Z,23.40
2022-08-30T15:03:55.042Z,22.60
2022-08-30T15:07:00.828Z,23.30
2022-08-30T15:10:07.189Z,23.40
2022-08-30T15:13:11.215Z,23.30
2022-08-30T15:16:19.373Z,23.40
2022-08-30T15:19:23.222Z,23.40
2022-08-30T15:22:28.626Z,22.20
2022-08-30T15:25:32.930Z,23.30
2022-08-30T15:28:36.434Z,23.30
2022-08-30T15:31:41.873Z,22.20
2022-08-30T15:34:45.551Z,23.20
2022-08-30T15:38:00.827Z,23.10
2022-08-30T15:41:10.715Z,23.10
2022-08-30T15:44:14.496Z,23.00
2022-08-30T15:47:20.867Z,23.00
2022-08-30T15:50:25.021Z,22.90
2022-08-30T15:53:30.559Z,22.80
2022-08-30T15:56:35.327Z,21.90
2022-08-30T15:59:38.848Z,22.60
2022-08-30T16:02:42.366Z,22.60
2022-08-30T16:05:46.047Z,22.60
2022-08-30T16:08:52.237Z,22.50
2022-08-30T16:11:55.890Z,22.60
2022-08-30T16:14:59.632Z,20.80
2022-08-30T16:18:03.377Z,22.60
2022-08-30T16:21:10.916Z,22.60
2022-08-30T16:24:18.171Z,22.60
2022-08-30T16:27:25.659Z,22.60
2022-08-30T16:30:29.042Z,22.60
2022-08-30T16:33:32.718Z,22.60
2022-08-30T16:36:36.067Z,22.60
2022-08-30T16:39:41.164Z,22.50
2022-08-30T16:42:50.312Z,22.50
2022-08-30T16:45:53.792Z,22.50
2022-08-30T16:48:59.407Z,22.40
2022-08-30T16:52:04.426Z,22.40
2022-08-30T16:55:10.071Z,22.30
2022-08-30T16:58:18.785Z,22.60
2022-08-30T17:01:24.230Z,22.10
2022-08-30T17:04:27.644Z,24.30
2022-08-30T17:07:30.936Z,22.00
2022-08-30T17:10:35.724Z,22.80
2022-08-30T17:13:40.419Z,21.90
2022-08-30T17:16:45.409Z,21.70
2022-08-30T17:19:49.486Z,21.80
2022-08-30T17:22:53.874Z,21.70
2022-08-30T17:25:59.359Z,21.70
2022-08-30T17:29:03.363Z,21.60
2022-08-30T17:32:07.756Z,21.50
2022-08-30T17:35:13.496Z,22.30
2022-08-30T17:38:17.215Z,21.40
2022-08-30T17:41:22.331Z,21.40
2022-08-30T17:44:29.712Z,21.30
2022-08-30T17:47:36.445Z,23.60
2022-08-30T17:50:40.199Z,21.20
2022-08-30T17:53:44.585Z,21.50
2022-08-30T17:56:50.171Z,21.10
2022-08-30T17:59:55.523Z,21.00
2022-08-30T18:02:59.778Z,20.90
2022-08-30T18:06:03.875Z,20.90
2022-08-30T18:09:08.550Z,20.80
2022-08-30T18:12:14.369Z,20.70
2022-08-30T18:15:17.930Z,20.60
2022-08-30T18:18:22.217Z,20.50
2022-08-30T18:21:28.407Z,20.40
2022-08-30T18:24:32.236Z,20.40
2022-08-30T18:27:39.347Z,20.30
2022-08-30T18:30:44.953Z,20.20
2022-08-30T18:33:49.109Z,20.20
2022-08-30T18:36:52.749Z,19.80
2022-08-30T18:39:56.543Z,20.00
2022-08-30T18:43:04.897Z,20.00
2022-08-30T18:46:11.584Z,19.90
2022-08-30T18:49:16.864Z,20.10
2022-08-30T18:52:20.815Z,18.20
2022-08-30T18:55:24.069Z,19.70
2022-08-30T18:58:28.720Z,19.70
2022-08-30T19:01:32.020Z,20.20
2022-08-30T19:04:36.173Z,19.50
2022-08-30T19:07:40.420Z,19.40
2022-08-30T19:10:43.625Z,19.50
2022-08-30T19:13:48.809Z,19.40
2022-08-30T19:16:54.919Z,19.30
2022-08-30T19:19:58.181Z,17.70
2022-08-30T19:23:09.779Z,18.60
2022-08-30T19:26:14.647Z,19.10
2022-08-30T19:29:19.205Z,19.00
2022-08-30T19:32:22.866Z,19.00
2022-08-30T19:35:30.116Z,18.90
2022-08-30T19:38:36.384Z,18.80
2022-08-30T19:41:39.705Z,18.80
2022-08-30T19:44:44.369Z,18.70
2022-08-30T19:47:48.763Z,18.70
2022-08-30T19:50:52.267Z,18.70
2022-08-30T19:53:58.789Z,18.60
2022-08-30T19:57:02.380Z,18.50
2022-08-30T20:00:11.179Z,18.50
2022-08-30T20:03:14.643Z,18.70
2022-08-30T20:06:19.656Z,18.40
2022-08-30T20:09:23.250Z,18.30
2022-08-30T20:12:26.518Z,18.30
2022-08-30T20:15:31.509Z,18.20
2022-08-30T20:18:36.491Z,18.20
2022-08-30T20:21:40.485Z,18.20
2022-08-30T20:24:44.871Z,18.10
2022-08-30T20:27:48.234Z,19.20
2022-08-30T20:30:53.695Z,18.10
2022-08-30T20:33:57.730Z,18.00
2022-08-30T20:37:00.969Z,18.00
2022-08-30T20:40:06.555Z,19.80
2022-08-30T20:43:09.813Z,17.90
2022-08-30T20:46:17.659Z,17.80
2022-08-30T20:49:20.871Z,17.80
2022-08-30T20:52:24.519Z,17.80
2022-08-30T20:55:28.164Z,17.70
2022-08-30T20:58:31.910Z,17.70
2022-08-30T21:01:38.914Z,17.70
2022-08-30T21:04:44.070Z,17.60
2022-08-30T21:07:47.972Z,16.80
2022-08-30T21:10:51.332Z,17.60
2022-08-30T21:13:54.706Z,17.50
2022-08-30T21:16:59.285Z,17.50
2022-08-30T21:20:04.249Z,17.50
2022-08-30T21:23:07.691Z,17.40
2022-08-30T21:26:12.325Z,17.40
2022-08-30T21:29:16.173Z,17.40
2022-08-30T21:32:20.800Z,15.60
2022-08-30T21:35:43.818Z,14.90
2022-08-30T21:38:47.151Z,17.20
2022-08-30T21:41:54.421Z,17.20
2022-08-30T21:44:57.855Z,17.20
2022-08-30T21:48:02.479Z,17.10
2022-08-30T21:51:08.082Z,17.10
2022-08-30T21:54:13.536Z,17.10
2022-08-30T21:57:17.472Z,17.00
2022-08-30T22:00:21.000Z,17.00
2022-08-30T22:03:25.753Z,17.00
2022-08-30T22:06:33.143Z,16.90
2022-08-30T22:09:36.890Z,16.90
2022-08-30T22:12:41.584Z,16.90
2022-08-30T22:15:44.836Z,16.90
2022-08-30T22:18:50.700Z,16.90
2022-08-30T22:22:00.886Z,18.50
2022-08-30T22:25:05.260Z,16.30
2022-08-30T22:28:08.546Z,16.80
2022-08-30T22:31:15.288Z,16.70
2022-08-30T22:34:19.933Z,16.70
2022-08-30T22:37:23.106Z,16.70
2022-08-30T22:40:26.569Z,16.60
2022-08-30T22:43:30.135Z,16.60
2022-08-30T22:46:34.906Z,16.60
2022-08-30T22:49:39.546Z,14.40
2022-08-30T22:52:42.694Z,16.50
2022-08-30T22:55:45.900Z,16.50
2022-08-30T22:58:50.184Z,16.50
2022-08-30T23:01:53.319Z,16.60
2022-08-30T23:04:58.055Z,16.50
2022-08-30T23:08:01.274Z,16.40
2022-08-30T23:11:04.585Z,16.40
2022-08-30T23:14:08.377Z,16.40
2022-08-30T23:17:11.814Z,16.40
2022-08-30T23:20:16.932Z,16.40
2022-08-30T23:23:38.016Z,16.40
2022-08-30T23:27:01.543Z,17.20
2022-08-30T23:30:26.476Z,16.30
2022-08-30T23:33:47.268Z,14.30
2022-08-30T23:37:09.378Z,16.30
2022-08-30T23:40:31.612Z,16.30
2022-08-30T23:43:54.151Z,16.30
2022-08-30T23:47:15.403Z,18.70
2022-08-30T23:50:36.566Z,16.20
2022-08-30T23:53:58.664Z,16.20
2022-08-30T23:57:19.576Z,16.20
